LGAVLGSM

Guest
Details From LGAV - Athens Intl Airport Elefterios Venizel
To LGSM - SAMOS
Flight Number -
Tags generated
Created
Modified
Stats Distance 142 nm / 262 km
Max Altitude 7,900 ft / 2,408 m
Waypoints 3
Social Downloads 15
Likes 0
Share VATSIM

Download

Looking for another format? Having issues loading an existing format? Contact us
Advertisement - Login to hide

Notes

Basic altitude profile: - Ascent Rate: 2500ft/min - Ascent Speed: 250kts - Cruise Altitude: 20000ft - Cruise Speed: 420kts - Descent Rate: 1500ft/min - Descent Speed: 250kts

Route

LGAV ERIMA LGSM

ID Type Via Altitude Latitude Longitude Leg Dist Tot Dist Heading (true) Name
O LGAV APT - 0 ft / 0 m 37.93636˚ 23.94447˚ - 0 nm - Athens Intl Airport Elefterios Venizel
ERIMA FIX - 7,900 ft / 2,408 m 37.74707˚ 26.13388˚ 104 nm 104 nm 96° / 97° -
O LGSM APT - 0 ft / 0 m 37.68901˚ 26.91112˚ 37 nm 141 nm 95° / 96° SAMOS

Altitude Profile

Advertisement - Login to hide

LGAV

Details ICAO LGAV (ATH)
Name Athens Intl Airport Elefterios Venizel
Region Greece
Timezone Europe/Athens (UTC+3.0)
Stats Elevation 308 ft / 94 m (AMSL)
Location 37.936357° 23.944470°
Runways 2
Magnetic Variation 4.527° E

METAR

LGAV 240820Z 06007KT 030V100 9999 FEW035 23/14 Q1013 NOSIG

Decode

TAF

TAF TAF LGAV 240500Z 2406/2506 VRB05KT 9999 FEW020 BECMG 2407/2409 02012KT SCT020 SCT070 PROB30 TEMPO 2406/2418 5000 RA BKN020 BKN070 PROB30 TEMPO 2407/2417 5000 TSRA FEW018CB SCT020 BKN070 BECMG 2422/2424 01014G24KT

Decode

Departure Runways

ID Width Length Bearing (true) Bearing (mag) Surface Threshold Offset Overrun Length
03L 148 ft / 45 m 12,474 ft / 3,802 m 36.51° 31.98° Asphalt 984 ft / 300 m 393 ft / 120 m
03R 148 ft / 45 m 13,131 ft / 4,002 m 36.52° 31.99° Asphalt 984 ft / 300 m 393 ft / 120 m
21L 148 ft / 45 m 13,131 ft / 4,002 m 216.54° 212.01° Asphalt 984 ft / 300 m 393 ft / 120 m
21R 148 ft / 45 m 12,474 ft / 3,802 m 216.53° 212.00° Asphalt 984 ft / 300 m 393 ft / 120 m

LGSM

Details ICAO LGSM (SMI)
Name SAMOS
Region Greece
Timezone Europe/Athens (UTC+3.0)
Stats Elevation 19 ft / 6 m (AMSL)
Location 37.689012° 26.911123°
Runways 1
Magnetic Variation 4.844° E

METAR

LGSM 240820Z 06007KT CAVOK 26/19 Q1011

Decode

TAF

Not found

Destination Runways

ID Width Length Bearing (true) Bearing (mag) Surface Threshold Offset Overrun Length
09 148 ft / 45 m 6,690 ft / 2,039 m 94.02° 89.18° Asphalt 230 ft / 70 m 0 ft / 0 m
27 148 ft / 45 m 6,690 ft / 2,039 m 274.03° 269.19° Asphalt 0 ft / 0 m 0 ft / 0 m

Popular Alternatives